createdAt,value
2022-08-14T00:02:26.980Z,26.34
2022-08-14T00:04:56.197Z,26.34
2022-08-14T00:07:24.730Z,26.60
2022-08-14T00:09:55.607Z,26.35
2022-08-14T00:12:33.696Z,26.56
2022-08-14T00:15:13.287Z,26.73
2022-08-14T00:17:47.956Z,26.89
2022-08-14T00:20:30.261Z,26.95
2022-08-14T00:23:12.578Z,26.97
2022-08-14T00:25:53.808Z,27.26
2022-08-14T00:28:36.018Z,27.25
2022-08-14T00:31:07.864Z,27.90
2022-08-14T00:33:51.086Z,27.77
2022-08-14T00:36:35.797Z,28.64
2022-08-14T00:39:17.794Z,28.16
2022-08-14T00:41:47.860Z,28.34
2022-08-14T00:44:21.409Z,28.42
2022-08-14T00:46:58.962Z,28.88
2022-08-14T00:49:30.208Z,28.04
2022-08-14T00:52:00.440Z,28.27
2022-08-14T00:54:28.924Z,28.70
2022-08-14T00:56:57.603Z,28.46
2022-08-14T00:59:28.380Z,28.52
2022-08-14T01:02:00.480Z,29.00
2022-08-14T01:04:38.257Z,29.03
2022-08-14T01:07:22.409Z,29.19
2022-08-14T01:09:58.982Z,29.58
2022-08-14T01:12:29.811Z,29.13
2022-08-14T01:15:02.226Z,28.97
2022-08-14T01:17:52.319Z,28.86
2022-08-14T01:20:41.142Z,28.80
2022-08-14T01:23:16.832Z,29.26
2022-08-14T01:25:51.351Z,28.96
2022-08-14T01:28:46.443Z,29.01
2022-08-14T01:31:15.659Z,29.24
2022-08-14T01:35:15.991Z,29.54
2022-08-14T01:36:38.912Z,29.04
2022-08-14T01:39:12.858Z,29.28
2022-08-14T01:41:44.492Z,29.04
2022-08-14T01:44:32.501Z,28.95
2022-08-14T01:47:12.290Z,28.90
2022-08-14T01:49:59.861Z,28.98
2022-08-14T01:52:58.823Z,28.62
2022-08-14T01:55:32.892Z,28.70
2022-08-14T01:58:20.378Z,28.91
2022-08-14T02:00:55.515Z,28.75
2022-08-14T02:03:30.078Z,28.91
2022-08-14T02:06:03.633Z,29.11
2022-08-14T02:08:53.219Z,28.89
2022-08-14T02:11:26.747Z,29.38
2022-08-14T02:14:08.417Z,29.32
2022-08-14T02:16:40.388Z,28.96
2022-08-14T02:19:15.118Z,28.91
2022-08-14T02:21:48.775Z,29.07
2022-08-14T02:24:39.044Z,29.13
2022-08-14T02:28:23.957Z,29.16
2022-08-14T02:30:02.192Z,29.44
2022-08-14T02:32:36.658Z,28.96
2022-08-14T02:35:18.533Z,28.79
2022-08-14T02:37:49.556Z,28.54
2022-08-14T02:40:32.577Z,28.36
2022-08-14T02:43:03.841Z,28.57
2022-08-14T02:45:38.633Z,27.99
2022-08-14T02:49:04.277Z,28.00
2022-08-14T02:51:07.147Z,27.86
2022-08-14T02:53:42.323Z,28.59
2022-08-14T02:56:30.005Z,28.79
2022-08-14T02:59:06.411Z,28.86
2022-08-14T03:01:50.452Z,28.69
2022-08-14T03:04:20.379Z,29.18
2022-08-14T03:07:06.516Z,29.31
2022-08-14T03:09:42.329Z,29.31
2022-08-14T03:12:31.182Z,29.27
2022-08-14T03:15:14.159Z,29.30
2022-08-14T03:17:57.673Z,29.24
2022-08-14T03:20:28.638Z,29.27
2022-08-14T03:23:00.106Z,29.09
2022-08-14T03:25:33.360Z,28.93
2022-08-14T03:28:07.083Z,29.00
2022-08-14T03:30:40.679Z,28.92
2022-08-14T03:33:12.252Z,29.30
2022-08-14T03:35:59.862Z,29.46
2022-08-14T03:39:13.038Z,29.35
2022-08-14T03:41:26.680Z,29.18
2022-08-14T03:45:27.291Z,29.55
2022-08-14T03:46:54.685Z,29.68
2022-08-14T03:49:28.381Z,29.71
2022-08-14T03:52:01.134Z,30.19
2022-08-14T03:54:29.975Z,29.97
2022-08-14T03:57:02.764Z,30.26
2022-08-14T03:59:32.931Z,30.39
2022-08-14T04:02:04.809Z,30.29
2022-08-14T04:04:53.439Z,30.81
2022-08-14T04:07:23.001Z,31.05
2022-08-14T04:09:52.698Z,31.24
2022-08-14T04:12:26.383Z,30.61
2022-08-14T04:14:55.359Z,30.96
2022-08-14T04:17:26.266Z,30.75
2022-08-14T04:19:57.154Z,30.76
2022-08-14T04:22:25.557Z,30.95
2022-08-14T04:24:54.512Z,30.99
2022-08-14T04:27:24.671Z,30.76
2022-08-14T04:29:54.282Z,31.41
2022-08-14T04:32:57.278Z,31.49
2022-08-14T04:35:23.383Z,31.33
2022-08-14T04:38:36.634Z,31.70
2022-08-14T04:41:17.830Z,31.78
2022-08-14T04:43:46.598Z,31.73
2022-08-14T04:46:56.250Z,30.98
2022-08-14T04:49:07.985Z,31.25
2022-08-14T04:51:37.459Z,31.18
2022-08-14T04:54:17.535Z,31.22
2022-08-14T04:56:46.085Z,30.44
2022-08-14T04:59:14.786Z,30.02
2022-08-14T05:01:45.274Z,29.79
2022-08-14T05:04:20.991Z,29.74
2022-08-14T05:06:53.690Z,29.81
2022-08-14T05:09:24.369Z,29.63
2022-08-14T05:11:54.053Z,29.51
2022-08-14T05:14:45.339Z,29.25
2022-08-14T05:17:12.147Z,28.90
2022-08-14T05:19:44.997Z,28.65
2022-08-14T05:22:29.641Z,28.47
2022-08-14T05:25:00.589Z,28.79
2022-08-14T05:27:31.189Z,28.95
2022-08-14T05:30:05.420Z,28.82
2022-08-14T05:32:33.919Z,28.93
2022-08-14T05:35:04.337Z,28.95
2022-08-14T05:37:32.883Z,28.61
2022-08-14T05:40:03.434Z,28.37
2022-08-14T05:42:34.207Z,28.49
2022-08-14T05:45:10.966Z,28.26
2022-08-14T05:47:42.035Z,28.59
2022-08-14T05:50:18.370Z,29.08
2022-08-14T05:52:50.880Z,29.20
2022-08-14T05:55:22.094Z,29.43
2022-08-14T05:57:53.585Z,29.84
2022-08-14T06:00:29.897Z,29.50
2022-08-14T06:03:06.767Z,29.61
2022-08-14T06:05:38.527Z,29.99
2022-08-14T06:08:35.786Z,29.73
2022-08-14T06:11:07.691Z,30.19
2022-08-14T06:13:45.743Z,29.81
2022-08-14T06:16:17.704Z,29.89
2022-08-14T06:18:51.697Z,29.80
2022-08-14T06:21:22.820Z,29.50
2022-08-14T06:23:51.973Z,29.98
2022-08-14T06:26:22.187Z,29.74
2022-08-14T06:28:52.425Z,29.75
2022-08-14T06:31:21.391Z,29.84
2022-08-14T06:35:09.383Z,29.81
2022-08-14T06:36:39.936Z,30.11
2022-08-14T06:39:10.062Z,29.95
2022-08-14T06:41:57.737Z,30.21
2022-08-14T06:44:32.833Z,30.10
2022-08-14T06:47:02.782Z,30.14
2022-08-14T06:49:42.783Z,30.44
2022-08-14T06:52:15.352Z,30.55
2022-08-14T06:54:45.581Z,30.35
2022-08-14T06:57:14.270Z,30.02
2022-08-14T06:59:43.307Z,29.89
2022-08-14T07:02:30.677Z,29.99
2022-08-14T07:05:22.902Z,29.51
2022-08-14T07:07:52.050Z,29.71
2022-08-14T07:10:22.197Z,29.50
2022-08-14T07:13:02.188Z,29.13
2022-08-14T07:15:39.731Z,28.95
2022-08-14T07:18:12.044Z,29.04
2022-08-14T07:20:42.184Z,29.08
2022-08-14T07:23:19.794Z,28.87
2022-08-14T07:25:52.584Z,28.84
2022-08-14T07:28:26.593Z,28.63
2022-08-14T07:31:05.283Z,28.71
2022-08-14T07:33:41.704Z,28.66
2022-08-14T07:36:27.308Z,28.90
2022-08-14T07:39:00.543Z,28.68
2022-08-14T07:41:31.390Z,28.30
2022-08-14T07:44:29.636Z,28.15
2022-08-14T07:46:52.063Z,28.04
2022-08-14T07:49:24.121Z,28.13
2022-08-14T07:51:52.948Z,27.97
2022-08-14T07:54:23.231Z,27.96
2022-08-14T07:57:00.117Z,27.52
2022-08-14T07:59:42.637Z,27.84
2022-08-14T08:02:20.403Z,28.02
2022-08-14T08:04:59.359Z,27.69
2022-08-14T08:07:31.198Z,27.63
2022-08-14T08:10:31.369Z,27.46
2022-08-14T08:13:18.220Z,27.57
2022-08-14T08:15:56.615Z,27.37
2022-08-14T08:18:29.296Z,27.36
2022-08-14T08:21:00.176Z,27.20
2022-08-14T08:23:43.413Z,27.17
2022-08-14T08:26:12.158Z,27.09
2022-08-14T08:28:43.896Z,26.86
2022-08-14T08:31:12.767Z,26.86
2022-08-14T08:33:42.489Z,26.65
2022-08-14T08:36:18.737Z,26.51
2022-08-14T08:39:16.676Z,26.30
2022-08-14T08:41:44.400Z,26.22
2022-08-14T08:44:17.318Z,25.96
2022-08-14T08:47:06.418Z,25.87
2022-08-14T08:49:43.223Z,25.40
2022-08-14T08:52:25.359Z,25.39
2022-08-14T08:55:00.986Z,25.46
2022-08-14T08:57:35.935Z,25.41
2022-08-14T09:00:25.787Z,25.51
2022-08-14T09:02:57.606Z,25.15
2022-08-14T09:05:26.316Z,24.90
2022-08-14T09:07:56.467Z,24.62
2022-08-14T09:10:27.243Z,25.27
2022-08-14T09:12:56.195Z,25.21
2022-08-14T09:15:24.869Z,25.20
2022-08-14T09:17:54.561Z,25.41
2022-08-14T09:20:26.480Z,24.82
2022-08-14T09:22:59.848Z,25.07
2022-08-14T09:26:00.548Z,24.80
2022-08-14T09:28:19.367Z,24.63
2022-08-14T09:30:54.076Z,24.60
2022-08-14T09:33:30.083Z,24.52
2022-08-14T09:36:18.725Z,24.77
2022-08-14T09:38:59.158Z,24.77
2022-08-14T09:42:17.353Z,24.94
2022-08-14T09:45:18.812Z,25.21
2022-08-14T09:47:52.101Z,24.83
2022-08-14T09:50:46.942Z,24.79
2022-08-14T09:54:17.789Z,25.02
2022-08-14T09:56:57.363Z,25.10
2022-08-14T09:59:33.702Z,25.15
2022-08-14T10:02:07.171Z,25.23
2022-08-14T10:04:42.456Z,24.99
2022-08-14T10:07:15.069Z,24.48
2022-08-14T10:09:59.996Z,24.29
2022-08-14T10:12:52.885Z,24.42
2022-08-14T10:15:27.845Z,23.54
2022-08-14T10:18:17.326Z,24.09
2022-08-14T10:20:57.871Z,23.89
2022-08-14T10:23:30.032Z,23.74
2022-08-14T10:26:07.467Z,23.42
2022-08-14T10:29:17.476Z,23.68
2022-08-14T10:31:45.483Z,24.10
2022-08-14T10:34:19.991Z,23.53
2022-08-14T10:37:14.431Z,23.62
2022-08-14T10:40:05.517Z,23.48
2022-08-14T10:42:43.714Z,23.42
2022-08-14T10:45:21.380Z,23.79
2022-08-14T10:48:09.643Z,23.57
2022-08-14T10:50:45.631Z,23.53
2022-08-14T10:53:15.293Z,23.17
2022-08-14T10:55:45.372Z,23.17
2022-08-14T10:58:14.967Z,23.27
2022-08-14T11:00:56.768Z,23.16
2022-08-14T11:03:35.840Z,23.06
2022-08-14T11:06:20.128Z,23.24
2022-08-14T11:08:50.829Z,22.45
2022-08-14T11:11:21.397Z,22.62
2022-08-14T11:13:50.641Z,23.05
2022-08-14T11:16:19.523Z,22.99
2022-08-14T11:18:51.312Z,22.84
2022-08-14T11:21:25.511Z,22.72
2022-08-14T11:24:00.282Z,22.62
2022-08-14T11:26:30.457Z,23.04
2022-08-14T11:29:00.307Z,23.41
2022-08-14T11:31:38.627Z,23.13
2022-08-14T11:34:29.674Z,22.78
2022-08-14T11:37:02.851Z,22.67
2022-08-14T11:39:45.587Z,22.74
2022-08-14T11:43:07.792Z,22.38
2022-08-14T11:45:18.991Z,22.40
2022-08-14T11:48:13.161Z,21.57
2022-08-14T11:50:44.508Z,21.76
2022-08-14T11:53:30.313Z,21.51
2022-08-14T11:56:06.214Z,21.47
2022-08-14T11:58:37.473Z,21.33
2022-08-14T12:01:09.578Z,20.80
2022-08-14T12:03:57.030Z,21.30
2022-08-14T12:06:29.657Z,20.69
2022-08-14T12:09:08.895Z,20.35
2022-08-14T12:11:47.582Z,20.24
2022-08-14T12:14:29.928Z,20.09
2022-08-14T12:17:12.727Z,20.67
2022-08-14T12:19:51.049Z,19.95
2022-08-14T12:22:40.266Z,20.25
2022-08-14T12:25:24.949Z,20.13
2022-08-14T12:27:59.298Z,19.38
2022-08-14T12:30:43.011Z,19.05
2022-08-14T12:33:33.293Z,19.57
2022-08-14T12:36:08.148Z,19.66
2022-08-14T12:38:41.169Z,19.15
2022-08-14T12:41:20.318Z,19.01
2022-08-14T12:43:59.586Z,19.15
2022-08-14T12:46:43.373Z,18.63
2022-08-14T12:49:16.410Z,18.74
2022-08-14T12:51:57.204Z,18.29
2022-08-14T12:54:28.046Z,18.41
2022-08-14T12:57:14.627Z,18.88
2022-08-14T12:59:49.462Z,19.17
2022-08-14T13:02:36.004Z,18.22
2022-08-14T13:05:05.537Z,18.71
2022-08-14T13:07:39.913Z,18.86
2022-08-14T13:10:35.063Z,18.86
2022-08-14T13:13:13.679Z,18.18
2022-08-14T13:15:45.624Z,18.50
2022-08-14T13:18:15.823Z,18.71
2022-08-14T13:20:51.460Z,18.63
2022-08-14T13:23:31.762Z,19.04
2022-08-14T13:26:02.814Z,18.67
2022-08-14T13:28:37.530Z,18.53
2022-08-14T13:31:14.529Z,18.56
2022-08-14T13:33:45.902Z,18.49
2022-08-14T13:36:23.755Z,18.23
2022-08-14T13:38:54.057Z,18.75
2022-08-14T13:41:31.496Z,18.75
2022-08-14T13:44:04.105Z,18.78
2022-08-14T13:46:32.945Z,18.89
2022-08-14T13:49:02.661Z,18.73
2022-08-14T13:51:36.341Z,18.25
2022-08-14T13:54:11.141Z,18.39
2022-08-14T13:56:41.890Z,18.73
2022-08-14T13:59:10.859Z,18.07
2022-08-14T14:01:43.942Z,18.42
2022-08-14T14:04:19.926Z,18.72
2022-08-14T14:06:51.151Z,18.54
2022-08-14T14:09:37.755Z,18.91
2022-08-14T14:12:49.134Z,18.07
2022-08-14T14:15:14.850Z,18.64
2022-08-14T14:17:47.850Z,18.88
2022-08-14T14:20:35.227Z,18.42
2022-08-14T14:23:09.742Z,18.46
2022-08-14T14:25:46.077Z,18.30
2022-08-14T14:28:24.487Z,18.16
2022-08-14T14:30:57.458Z,18.33
2022-08-14T14:33:49.317Z,17.94
2022-08-14T14:36:27.851Z,18.39
2022-08-14T14:39:01.324Z,17.81
2022-08-14T14:41:43.342Z,18.37
2022-08-14T14:44:16.035Z,17.94
2022-08-14T14:46:50.439Z,18.29
2022-08-14T14:49:22.124Z,18.47
2022-08-14T14:52:00.581Z,18.23
2022-08-14T14:54:31.602Z,17.82
2022-08-14T14:57:09.378Z,18.50
2022-08-14T14:59:37.992Z,18.28
2022-08-14T15:02:09.451Z,17.96
2022-08-14T15:04:39.134Z,18.10
2022-08-14T15:07:16.213Z,18.39
2022-08-14T15:09:45.025Z,17.89
2022-08-14T15:12:56.571Z,17.41
2022-08-14T15:15:09.079Z,17.50
2022-08-14T15:17:41.142Z,17.82
2022-08-14T15:20:16.814Z,17.52
2022-08-14T15:22:51.380Z,18.07
2022-08-14T15:25:20.461Z,17.71
2022-08-14T15:27:51.075Z,17.53
2022-08-14T15:30:32.353Z,17.58
2022-08-14T15:33:01.467Z,17.63
2022-08-14T15:35:34.290Z,17.83
2022-08-14T15:38:09.837Z,17.44
2022-08-14T15:40:41.387Z,18.05
2022-08-14T15:43:12.945Z,18.21
2022-08-14T15:45:41.777Z,18.41
2022-08-14T15:48:15.777Z,18.70
2022-08-14T15:50:51.718Z,18.65
2022-08-14T15:53:22.560Z,18.22
2022-08-14T15:55:53.038Z,18.74
2022-08-14T15:58:25.730Z,18.52
2022-08-14T16:01:13.148Z,18.45
2022-08-14T16:03:46.332Z,18.35
2022-08-14T16:06:18.545Z,18.57
2022-08-14T16:08:58.726Z,18.75
2022-08-14T16:11:33.047Z,18.53
2022-08-14T16:14:01.859Z,18.76
2022-08-14T16:16:49.544Z,18.80
2022-08-14T16:19:21.136Z,18.67
2022-08-14T16:22:01.683Z,18.96
2022-08-14T16:27:41.257Z,19.08
2022-08-14T16:30:20.710Z,18.77
2022-08-14T16:32:56.611Z,18.95
2022-08-14T16:35:42.574Z,18.54
2022-08-14T16:38:44.420Z,18.82
2022-08-14T16:41:25.612Z,18.66
2022-08-14T16:44:06.279Z,18.92
2022-08-14T16:46:57.191Z,19.13
2022-08-14T16:50:02.520Z,19.04
2022-08-14T16:52:43.627Z,19.02
2022-08-14T16:55:07.252Z,18.90
2022-08-14T16:57:47.378Z,18.92
2022-08-14T17:00:43.727Z,18.71
2022-08-14T17:03:14.638Z,18.80
2022-08-14T17:05:46.993Z,19.00
2022-08-14T17:08:32.857Z,18.90
2022-08-14T17:11:12.438Z,19.03
2022-08-14T17:13:58.794Z,19.17
2022-08-14T17:16:37.759Z,19.44
2022-08-14T17:19:11.571Z,19.63
2022-08-14T17:21:47.078Z,19.94
2022-08-14T17:24:57.802Z,19.80
2022-08-14T17:27:10.400Z,20.04
2022-08-14T17:29:54.508Z,20.09
2022-08-14T17:32:44.350Z,19.96
2022-08-14T17:35:57.748Z,19.82
2022-08-14T17:38:39.133Z,20.33
2022-08-14T17:41:22.758Z,20.26
2022-08-14T17:43:55.079Z,20.60
2022-08-14T17:46:57.149Z,20.53
2022-08-14T17:49:33.351Z,20.60
2022-08-14T17:52:07.890Z,20.52
2022-08-14T17:54:52.919Z,21.28
2022-08-14T17:57:35.508Z,21.47
2022-08-14T18:00:16.448Z,21.86
2022-08-14T18:02:51.202Z,21.88
2022-08-14T18:06:08.448Z,22.02
2022-08-14T18:08:33.167Z,21.86
2022-08-14T18:11:03.467Z,22.18
2022-08-14T18:13:51.711Z,22.00
2022-08-14T18:16:22.280Z,22.06
2022-08-14T18:18:51.679Z,22.30
2022-08-14T18:21:40.420Z,22.43
2022-08-14T18:24:28.470Z,22.55
2022-08-14T18:27:09.305Z,22.77
2022-08-14T18:29:54.841Z,22.49
2022-08-14T18:32:27.069Z,22.10
2022-08-14T18:35:11.231Z,22.60
2022-08-14T18:37:56.113Z,22.35
2022-08-14T18:40:35.078Z,22.35
2022-08-14T18:43:06.498Z,22.27
2022-08-14T18:45:41.163Z,22.69
2022-08-14T18:48:19.319Z,22.94
2022-08-14T18:51:04.972Z,23.18
2022-08-14T18:53:54.950Z,22.59
2022-08-14T18:57:03.195Z,22.65
2022-08-14T18:59:43.150Z,22.76
2022-08-14T19:02:30.469Z,22.58
2022-08-14T19:05:02.826Z,23.00
2022-08-14T19:07:33.861Z,23.00
2022-08-14T19:10:08.801Z,22.61
2022-08-14T19:13:00.363Z,22.80
2022-08-14T19:15:38.429Z,22.47
2022-08-14T19:18:28.344Z,23.04
2022-08-14T19:21:00.161Z,23.41
2022-08-14T19:23:42.787Z,22.86
2022-08-14T19:26:35.744Z,23.11
2022-08-14T19:29:37.528Z,23.30
2022-08-14T19:32:36.635Z,23.13
2022-08-14T19:35:16.807Z,23.33
2022-08-14T19:37:54.102Z,23.44
2022-08-14T19:40:33.861Z,23.79
2022-08-14T19:43:06.496Z,24.55
2022-08-14T19:45:36.139Z,24.71
2022-08-14T19:48:14.234Z,24.81
2022-08-14T19:50:45.998Z,24.46
2022-08-14T19:53:17.100Z,24.07
2022-08-14T19:56:03.619Z,23.97
2022-08-14T19:58:55.426Z,24.37
2022-08-14T20:01:37.240Z,24.69
2022-08-14T20:04:45.265Z,25.07
2022-08-14T20:07:00.048Z,25.21
2022-08-14T20:11:03.175Z,25.37
2022-08-14T20:12:29.004Z,24.79
2022-08-14T20:15:15.471Z,24.98
2022-08-14T20:17:53.605Z,25.52
2022-08-14T20:20:31.452Z,25.14
2022-08-14T20:23:10.808Z,25.37
2022-08-14T20:25:56.766Z,25.53
2022-08-14T20:28:32.660Z,25.65
2022-08-14T20:31:19.603Z,25.42
2022-08-14T20:34:06.427Z,25.43
2022-08-14T20:36:41.292Z,25.29
2022-08-14T20:39:15.158Z,25.60
2022-08-14T20:41:51.281Z,25.46
2022-08-14T20:44:42.148Z,25.57
2022-08-14T20:47:16.391Z,25.78
2022-08-14T20:49:45.543Z,26.07
2022-08-14T20:52:19.039Z,25.63
2022-08-14T20:54:51.539Z,25.21
2022-08-14T20:57:20.802Z,26.16
2022-08-14T20:59:52.976Z,26.18
2022-08-14T21:02:50.294Z,26.29
2022-08-14T21:05:33.353Z,25.99
2022-08-14T21:08:09.947Z,26.06
2022-08-14T21:10:55.019Z,25.92
2022-08-14T21:14:21.092Z,26.70
2022-08-14T21:16:34.656Z,26.83
2022-08-14T21:19:05.474Z,26.92
2022-08-14T21:21:40.815Z,26.81
2022-08-14T21:24:38.941Z,26.56
2022-08-14T21:27:19.523Z,26.55
2022-08-14T21:29:55.068Z,26.31
2022-08-14T21:32:50.283Z,26.13
2022-08-14T21:35:25.974Z,26.17
2022-08-14T21:37:55.968Z,26.45
2022-08-14T21:40:42.444Z,26.21
2022-08-14T21:43:22.349Z,25.76
2022-08-14T21:45:58.973Z,25.99
2022-08-14T21:48:31.834Z,26.68
2022-08-14T21:51:55.119Z,26.61
2022-08-14T21:54:01.252Z,26.39
2022-08-14T21:56:39.206Z,26.60
2022-08-14T21:59:22.518Z,27.18
2022-08-14T22:02:00.979Z,27.53
2022-08-14T22:04:40.367Z,27.44
2022-08-14T22:07:17.206Z,27.82
2022-08-14T22:09:55.083Z,27.65
2022-08-14T22:12:45.325Z,27.93
2022-08-14T22:15:16.390Z,26.86
2022-08-14T22:17:52.537Z,27.17
2022-08-14T22:20:27.950Z,27.53
2022-08-14T22:22:58.856Z,27.60
2022-08-14T22:25:33.340Z,26.98
2022-08-14T22:28:10.030Z,27.32
2022-08-14T22:30:39.184Z,28.18
2022-08-14T22:33:13.283Z,27.19
2022-08-14T22:35:43.436Z,27.28
2022-08-14T22:38:37.498Z,27.60
2022-08-14T22:41:25.360Z,27.15
2022-08-14T22:43:53.669Z,26.73
2022-08-14T22:46:23.614Z,26.67
2022-08-14T22:48:53.858Z,27.34
2022-08-14T22:51:23.571Z,26.41
2022-08-14T22:53:54.463Z,26.70
2022-08-14T22:56:30.271Z,27.68
2022-08-14T22:59:01.627Z,27.39
2022-08-14T23:01:56.446Z,28.43
2022-08-14T23:04:35.350Z,28.21
2022-08-14T23:07:21.662Z,28.20
2022-08-14T23:09:56.894Z,28.00
2022-08-14T23:12:29.533Z,28.58
2022-08-14T23:15:00.080Z,28.38
2022-08-14T23:17:39.031Z,28.03
2022-08-14T23:20:18.726Z,27.25
2022-08-14T23:22:52.586Z,27.71
2022-08-14T23:25:57.312Z,27.87
2022-08-14T23:28:33.977Z,28.20
2022-08-14T23:31:11.690Z,29.25
2022-08-14T23:33:46.202Z,29.86
2022-08-14T23:36:31.621Z,28.35
2022-08-14T23:39:02.081Z,28.16
2022-08-14T23:41:45.948Z,27.84
2022-08-14T23:44:23.810Z,27.61
2022-08-14T23:46:56.595Z,29.13
2022-08-14T23:49:56.854Z,31.06
2022-08-14T23:52:51.478Z,31.26
2022-08-14T23:55:11.269Z,30.41
2022-08-14T23:57:44.004Z,30.99
